Time;durP1;ratioP1;P1;durP2;ratioP2;P2;SDS_P1;SDS_P2;PMS_P1;PMS_P2;Temp;Humidity;BMP_temperature;BMP_pressure;BME280_temperature;BME280_humidity;BME280_pressure;Samples;Min_cycle;Max_cycle;Signal;HPM_P1;HPM_P2
2023/10/26 00:01:04;;;;;;;40.90;36.58;;;16.10;99.90;;;;;;5064851;28;20084;-66
2023/10/26 00:03:29;;;;;;;45.53;38.28;;;16.10;99.90;;;;;;5066042;28;20573;-66
2023/10/26 00:05:55;;;;;;;42.13;37.95;;;15.80;99.90;;;;;;5068904;28;20032;-66
2023/10/26 00:08:21;;;;;;;42.15;37.85;;;15.70;99.90;;;;;;5064967;28;20069;-66
2023/10/26 00:10:46;;;;;;;44.03;39.58;;;15.70;99.90;;;;;;5066588;28;20143;-66
2023/10/26 00:13:12;;;;;;;43.28;38.88;;;15.70;99.90;;;;;;5084980;28;20554;-66
2023/10/26 00:15:38;;;;;;;43.97;39.30;;;15.90;99.90;;;;;;5069095;28;20422;-66
2023/10/26 00:18:04;;;;;;;44.08;39.60;;;15.90;99.90;;;;;;5068125;28;20508;-66
2023/10/26 00:20:30;;;;;;;45.78;39.40;;;15.70;99.90;;;;;;5069569;28;20490;-66
2023/10/26 00:22:56;;;;;;;43.38;38.55;;;15.50;99.90;;;;;;5068679;28;20047;-66
2023/10/26 00:25:21;;;;;;;45.13;40.80;;;15.70;99.90;;;;;;5069252;28;20040;-66
2023/10/26 00:27:47;;;;;;;51.58;43.95;;;15.70;99.90;;;;;;5051396;28;20417;-65
2023/10/26 00:30:13;;;;;;;50.47;45.33;;;15.70;99.90;;;;;;5069545;28;20049;-66
2023/10/26 00:32:39;;;;;;;53.63;47.45;;;15.90;1.00;;;;;;5069248;28;20040;-66
2023/10/26 00:35:05;;;;;;;61.35;43.67;;;15.60;1.00;;;;;;5068792;28;20055;-66
2023/10/26 00:37:31;;;;;;;50.00;44.72;;;15.60;1.00;;;;;;5084530;28;20037;-66
2023/10/26 00:39:56;;;;;;;50.35;44.97;;;15.60;1.00;;;;;;5067553;28;20838;-66
2023/10/26 00:42:22;;;;;;;52.13;44.67;;;15.60;1.00;;;;;;5068776;28;20040;-66
2023/10/26 00:44:49;;;;;;;54.42;48.17;;;15.60;1.00;;;;;;5068961;28;20093;-62
2023/10/26 00:47:16;;;;;;;62.72;50.50;;;15.70;7.70;;;;;;5084253;28;20320;-62
2023/10/26 00:49:42;;;;;;;65.43;51.70;;;15.70;55.40;;;;;;5068916;28;20533;-63
2023/10/26 00:52:09;;;;;;;56.55;48.65;;;15.70;99.90;;;;;;5068625;28;20426;-64
2023/10/26 00:54:35;;;;;;;66.13;48.50;;;16.10;99.90;;;;;;5068263;28;20051;-63
2023/10/26 00:57:01;;;;;;;61.42;49.72;;;15.80;99.90;;;;;;5068831;28;20040;-62
2023/10/26 00:59:28;;;;;;;71.25;48.17;;;15.80;99.90;;;;;;5068472;28;20037;-62
2023/10/26 01:01:56;;;;;;;71.35;51.17;;;16.00;99.90;;;;;;5056756;28;20045;-62
2023/10/26 01:04:21;;;;;;;82.15;50.83;;;16.20;99.90;;;;;;5068802;28;20044;-63
2023/10/26 01:06:47;;;;;;;67.38;48.75;;;16.00;99.90;;;;;;5069046;28;20047;-63
2023/10/26 01:09:14;;;;;;;95.30;54.08;;;16.20;99.90;;;;;;5068743;28;20540;-63
2023/10/26 01:11:40;;;;;;;67.93;46.20;;;16.20;99.90;;;;;;5067906;28;20490;-62
2023/10/26 01:14:07;;;;;;;64.25;42.85;;;15.90;99.90;;;;;;5068747;28;20044;-63
2023/10/26 01:16:33;;;;;;;47.08;41.92;;;15.70;99.90;;;;;;5067387;28;20029;-64
2023/10/26 01:19:00;;;;;;;49.38;39.50;;;15.40;99.90;;;;;;5068418;28;20081;-63
2023/10/26 01:21:27;;;;;;;50.53;39.45;;;15.50;99.90;;;;;;5068503;28;20048;-63
2023/10/26 01:23:53;;;;;;;62.17;41.65;;;15.30;99.90;;;;;;5068602;28;20040;-62
2023/10/26 01:26:19;;;;;;;53.28;45.20;;;15.20;99.90;;;;;;5068003;28;20036;-62
2023/10/26 01:28:45;;;;;;;47.78;43.00;;;15.30;99.90;;;;;;5068538;28;20124;-63
2023/10/26 01:31:10;;;;;;;52.70;47.10;;;15.30;99.90;;;;;;5067176;28;20508;-62
2023/10/26 01:33:36;;;;;;;61.72;47.95;;;15.20;99.90;;;;;;5068059;28;20052;-62
2023/10/26 01:36:01;;;;;;;57.88;49.38;;;15.70;99.90;;;;;;5068562;28;20083;-63
2023/10/26 01:38:27;;;;;;;64.88;51.00;;;15.80;99.90;;;;;;5067828;28;20055;-63
2023/10/26 01:40:53;;;;;;;80.85;51.50;;;15.90;1.00;;;;;;5067592;28;20037;-63
2023/10/26 01:43:18;;;;;;;72.05;48.22;;;15.70;1.00;;;;;;5068430;28;20044;-62
2023/10/26 01:45:44;;;;;;;89.55;52.45;;;15.90;1.00;;;;;;5067883;28;20097;-62
2023/10/26 01:48:10;;;;;;;112.45;55.60;;;15.70;1.00;;;;;;5068209;28;20040;-63
2023/10/26 01:50:35;;;;;;;112.93;54.25;;;15.50;1.00;;;;;;5067532;28;20249;-62
2023/10/26 01:53:01;;;;;;;204.70;61.03;;;15.70;1.00;;;;;;5067012;28;20121;-63
2023/10/26 01:55:26;;;;;;;314.58;59.00;;;15.60;12.10;;;;;;5067483;28;20036;-71
2023/10/26 01:57:52;;;;;;;580.00;63.05;;;15.60;32.10;;;;;;5066956;28;20036;-72
2023/10/26 02:00:18;;;;;;;594.33;59.78;;;15.60;64.70;;;;;;5067642;28;20051;-73
2023/10/26 02:02:46;;;;;;;800.33;71.63;;;15.80;48.70;;;;;;5056917;28;20032;-71
2023/10/26 02:05:11;;;;;;;820.72;67.25;;;15.40;27.10;;;;;;5066970;28;20464;-72
2023/10/26 02:07:37;;;;;;;1074.50;78.40;;;15.30;2.70;;;;;;5067117;28;20032;-72
2023/10/26 02:10:03;;;;;;;236.27;63.42;;;15.30;86.10;;;;;;5067161;28;20075;-71
2023/10/26 02:12:28;;;;;;;846.38;76.80;;;15.50;99.90;;;;;;5067500;28;20044;-73
2023/10/26 02:14:54;;;;;;;767.97;69.43;;;15.60;99.90;;;;;;5065570;28;20174;-68
2023/10/26 02:17:19;;;;;;;609.88;65.75;;;15.50;99.90;;;;;;5066499;28;20040;-71
2023/10/26 02:19:45;;;;;;;321.02;61.60;;;15.60;99.90;;;;;;5067116;28;20053;-71
2023/10/26 02:22:10;;;;;;;125.95;55.10;;;15.60;99.90;;;;;;5066649;28;20384;-69
2023/10/26 02:24:36;;;;;;;304.90;64.97;;;15.70;99.90;;;;;;5067063;28;20063;-73
2023/10/26 02:27:01;;;;;;;130.70;55.65;;;15.60;99.90;;;;;;5065134;28;20042;-68
2023/10/26 02:29:27;;;;;;;402.00;70.07;;;15.40;99.90;;;;;;5065964;28;20130;-71
2023/10/26 02:31:52;;;;;;;176.77;56.38;;;15.70;1.00;;;;;;5065756;28;20040;-71
2023/10/26 02:34:18;;;;;;;791.35;68.32;;;15.80;1.00;;;;;;5066414;28;20049;-71
2023/10/26 02:36:44;;;;;;;651.58;78.03;;;15.20;1.00;;;;;;5065819;28;20040;-73
2023/10/26 02:39:09;;;;;;;362.58;68.03;;;15.20;1.00;;;;;;5066552;28;20097;-71
2023/10/26 02:41:35;;;;;;;552.17;62.97;;;15.20;1.00;;;;;;5066181;28;20043;-70
2023/10/26 02:44:00;;;;;;;589.55;59.90;;;15.40;1.00;;;;;;5067050;28;20048;-71
2023/10/26 02:46:26;;;;;;;818.60;75.20;;;15.40;1.00;;;;;;5065265;28;20070;-72
2023/10/26 02:48:51;;;;;;;895.67;92.13;;;15.40;1.00;;;;;;5066158;28;20044;-71
2023/10/26 02:51:17;;;;;;;453.52;53.22;;;15.40;12.50;;;;;;5067147;28;20449;-71
2023/10/26 02:53:42;;;;;;;467.33;43.83;;;15.30;63.10;;;;;;5066923;28;20406;-73
2023/10/26 02:56:08;;;;;;;428.08;48.72;;;15.00;78.40;;;;;;5066071;28;20048;-71
2023/10/26 02:58:34;;;;;;;541.72;57.53;;;15.00;1.00;;;;;;5066096;28;20127;-71
2023/10/26 03:00:59;;;;;;;531.53;62.78;;;14.70;1.00;;;;;;5065927;28;20060;-71
2023/10/26 03:03:25;;;;;;;390.75;48.80;;;15.00;38.00;;;;;;5063500;28;20051;-71
2023/10/26 03:05:51;;;;;;;399.73;54.65;;;15.10;99.90;;;;;;5066759;28;20043;-60
2023/10/26 03:08:17;;;;;;;368.10;57.00;;;14.80;99.90;;;;;;5065417;28;20043;-61
2023/10/26 03:10:42;;;;;;;367.33;44.15;;;14.90;99.90;;;;;;5066375;28;20040;-62
2023/10/26 03:13:08;;;;;;;608.83;60.55;;;14.90;99.90;;;;;;5066194;28;20582;-62
2023/10/26 03:15:34;;;;;;;585.35;54.88;;;15.00;99.90;;;;;;5066919;28;20048;-62
2023/10/26 03:18:00;;;;;;;1265.47;114.88;;;15.00;99.90;;;;;;5065993;28;20529;-63
2023/10/26 03:20:25;;;;;;;176.00;45.97;;;14.70;99.90;;;;;;5065084;28;20052;-62
2023/10/26 03:22:51;;;;;;;219.20;47.53;;;15.10;99.90;;;;;;5066865;28;20064;-62
2023/10/26 03:25:17;;;;;;;214.40;43.33;;;15.00;99.90;;;;;;5066565;28;20571;-61
2023/10/26 03:27:43;;;;;;;139.02;42.95;;;14.60;99.90;;;;;;5065992;28;20098;-62
2023/10/26 03:30:09;;;;;;;242.52;52.47;;;14.80;99.90;;;;;;5066156;28;20048;-61
2023/10/26 03:32:35;;;;;;;144.77;55.42;;;14.90;99.90;;;;;;5064795;28;20040;-62
2023/10/26 03:35:01;;;;;;;415.23;92.45;;;15.00;99.90;;;;;;5066007;28;20048;-61
2023/10/26 03:37:27;;;;;;;594.97;120.60;;;14.80;1.00;;;;;;5066692;28;20522;-62
2023/10/26 03:39:53;;;;;;;676.33;109.10;;;15.30;99.90;;;;;;5070136;28;20151;-61
2023/10/26 03:42:19;;;;;;;562.10;103.20;;;15.20;99.90;;;;;;5069656;28;20032;-62
2023/10/26 03:44:45;;;;;;;711.15;128.52;;;15.30;99.90;;;;;;5068506;28;20040;-62
2023/10/26 03:47:10;;;;;;;526.40;91.90;;;16.20;1.00;;;;;;5069930;28;20162;-62
2023/10/26 03:49:36;;;;;;;564.30;96.75;;;15.50;1.00;;;;;;5069894;28;20405;-61
2023/10/26 03:52:01;;;;;;;556.92;92.78;;;15.40;1.00;;;;;;5070254;28;20044;-61
2023/10/26 03:54:27;;;;;;;696.58;113.78;;;15.60;32.70;;;;;;5069975;28;20049;-62
2023/10/26 03:56:53;;;;;;;820.33;132.82;;;15.80;99.90;;;;;;5085401;28;20040;-63
2023/10/26 03:59:18;;;;;;;688.50;122.75;;;16.20;99.90;;;;;;5070072;28;20056;-63
2023/10/26 04:01:44;;;;;;;705.13;124.05;;;16.40;99.90;;;;;;5068906;28;20048;-62
2023/10/26 04:04:09;;;;;;;1026.80;146.52;;;16.10;1.00;;;;;;5070109;28;20044;-62
2023/10/26 04:06:35;;;;;;;964.00;137.60;;;16.00;4.30;;;;;;5068158;28;20040;-61
2023/10/26 04:09:01;;;;;;;1082.00;141.90;;;16.70;90.50;;;;;;5060167;28;20037;-61
2023/10/26 04:11:27;;;;;;;1001.67;139.15;;;16.10;99.90;;;;;;5065453;28;20048;-62
2023/10/26 04:13:54;;;;;;;984.83;141.10;;;16.90;99.90;;;;;;5068974;28;20395;-61
2023/10/26 04:16:21;;;;;;;1021.85;154.82;;;16.80;99.90;;;;;;5049844;28;20048;-61
2023/10/26 04:18:46;;;;;;;1405.95;185.98;;;16.80;99.90;;;;;;5067230;28;20124;-61
2023/10/26 04:21:12;;;;;;;815.88;142.30;;;16.30;99.90;;;;;;5069526;28;20410;-61
2023/10/26 04:23:38;;;;;;;842.58;144.35;;;16.80;1.00;;;;;;5069790;28;20040;-62
2023/10/26 04:26:04;;;;;;;925.78;149.93;;;16.80;1.00;;;;;;5069389;28;20044;-62
2023/10/26 04:28:30;;;;;;;845.30;140.60;;;16.50;1.00;;;;;;5067276;28;20040;-62
2023/10/26 04:30:56;;;;;;;811.63;137.75;;;16.90;40.20;;;;;;5069539;28;20395;-62
2023/10/26 04:33:21;;;;;;;749.22;133.27;;;17.50;99.90;;;;;;5068526;28;20498;-62
2023/10/26 04:35:48;;;;;;;878.47;146.45;;;17.00;99.90;;;;;;5068636;28;20044;-62
2023/10/26 04:38:14;;;;;;;1016.63;175.85;;;17.10;99.90;;;;;;5069153;28;20395;-62
2023/10/26 04:40:41;;;;;;;769.80;154.45;;;17.00;99.90;;;;;;5069296;28;20445;-62
2023/10/26 04:43:08;;;;;;;949.00;175.98;;;17.10;99.90;;;;;;5068650;28;20044;-63
2023/10/26 04:45:34;;;;;;;1142.32;188.70;;;16.50;1.00;;;;;;5066334;28;20068;-62
2023/10/26 04:48:00;;;;;;;951.75;165.82;;;16.60;1.00;;;;;;5067676;28;20097;-64
2023/10/26 04:50:27;;;;;;;665.58;141.85;;;16.60;1.00;;;;;;5067143;28;20094;-64
2023/10/26 04:52:53;;;;;;;916.90;160.48;;;16.60;34.10;;;;;;5068443;28;20051;-63
2023/10/26 04:55:19;;;;;;;1007.80;168.35;;;16.60;93.10;;;;;;5067207;28;20040;-62
2023/10/26 04:57:44;;;;;;;1106.93;183.10;;;16.70;99.90;;;;;;5058565;28;20036;-61
2023/10/26 05:00:10;;;;;;;977.13;157.93;;;16.80;99.90;;;;;;5066257;28;20032;-62
2023/10/26 05:02:40;;;;;;;555.03;131.20;;;17.10;99.90;;;;;;5066266;28;20093;-62
2023/10/26 05:05:07;;;;;;;525.22;125.22;;;16.60;99.90;;;;;;5061186;28;20082;-63
2023/10/26 05:07:33;;;;;;;607.45;129.93;;;17.30;99.90;;;;;;5067400;28;20036;-62
2023/10/26 05:09:59;;;;;;;746.15;141.70;;;17.40;99.90;;;;;;5055240;28;20056;-63
2023/10/26 05:12:25;;;;;;;664.42;137.90;;;17.40;99.90;;;;;;5055377;28;20052;-63
2023/10/26 05:14:51;;;;;;;884.30;152.50;;;17.30;1.00;;;;;;5059655;28;20102;-63
2023/10/26 05:17:17;;;;;;;1311.15;189.82;;;17.20;1.00;;;;;;5058866;28;20066;-63
2023/10/26 05:19:43;;;;;;;803.67;147.13;;;16.60;1.00;;;;;;5059817;28;20559;-65
2023/10/26 05:22:08;;;;;;;701.03;137.98;;;16.80;1.00;;;;;;5058968;28;20048;-62
2023/10/26 05:24:34;;;;;;;720.80;133.73;;;16.70;1.00;;;;;;5059564;28;20052;-62
2023/10/26 05:27:00;;;;;;;729.80;133.80;;;16.90;1.00;;;;;;5055182;28;20048;-63
2023/10/26 05:29:28;;;;;;;807.60;138.48;;;17.20;15.50;;;;;;5057294;28;20044;-64
2023/10/26 05:31:54;;;;;;;631.28;126.55;;;17.20;70.80;;;;;;5057942;28;20044;-63
2023/10/26 05:34:19;;;;;;;555.22;117.82;;;16.90;99.90;;;;;;5059103;28;20499;-63
2023/10/26 05:36:45;;;;;;;484.27;110.13;;;17.20;99.90;;;;;;5061109;28;20069;-64
2023/10/26 05:39:10;;;;;;;532.65;116.88;;;16.60;99.90;;;;;;5057669;28;20671;-63
2023/10/26 05:41:36;;;;;;;570.88;122.70;;;17.20;99.90;;;;;;5056925;28;20045;-64
2023/10/26 05:44:01;;;;;;;409.02;105.47;;;17.00;99.90;;;;;;5059345;28;20044;-63
2023/10/26 05:46:27;;;;;;;323.23;99.72;;;17.10;99.90;;;;;;5059585;28;20123;-64
2023/10/26 05:48:52;;;;;;;288.92;104.03;;;16.60;99.90;;;;;;5059400;28;20094;-65
2023/10/26 05:51:18;;;;;;;258.15;101.82;;;17.10;99.90;;;;;;5056588;28;20520;-64
2023/10/26 05:53:44;;;;;;;272.83;102.43;;;16.50;99.90;;;;;;5061080;28;20546;-64
2023/10/26 05:56:10;;;;;;;200.65;98.53;;;16.60;1.00;;;;;;5057705;28;20728;-64
2023/10/26 05:58:36;;;;;;;201.07;97.53;;;17.00;1.00;;;;;;5060236;28;20414;-63
2023/10/26 06:01:02;;;;;;;237.75;102.05;;;16.70;1.00;;;;;;5054546;28;20757;-63
2023/10/26 06:03:28;;;;;;;238.23;101.20;;;16.70;1.00;;;;;;5057385;28;20113;-64
2023/10/26 06:05:59;;;;;;;197.10;98.30;;;16.80;1.00;;;;;;5058791;28;20051;-63
2023/10/26 06:08:25;;;;;;;223.35;98.70;;;17.20;4.50;;;;;;5056486;28;20135;-65
2023/10/26 06:10:51;;;;;;;205.13;100.22;;;16.60;49.90;;;;;;5058097;28;20046;-63
2023/10/26 06:13:16;;;;;;;190.77;99.47;;;17.30;84.00;;;;;;5057717;28;20044;-63
2023/10/26 06:15:42;;;;;;;236.27;107.45;;;16.90;99.90;;;;;;5051379;28;20036;-64
2023/10/26 06:18:08;;;;;;;179.88;96.75;;;17.50;99.90;;;;;;5053246;28;20036;-63
2023/10/26 06:20:33;;;;;;;162.43;93.90;;;17.30;99.90;;;;;;5055499;28;20048;-64
2023/10/26 06:22:59;;;;;;;155.75;95.18;;;17.60;99.90;;;;;;5058566;28;20055;-62
2023/10/26 06:25:25;;;;;;;232.85;103.80;;;17.30;99.90;;;;;;5058427;28;20052;-64
2023/10/26 06:27:51;;;;;;;171.43;98.72;;;17.50;99.90;;;;;;5057129;28;20151;-62
2023/10/26 06:30:17;;;;;;;148.90;91.40;;;17.40;99.90;;;;;;5053384;28;20103;-63
2023/10/26 06:32:42;;;;;;;159.27;92.22;;;17.10;99.90;;;;;;5054133;28;20047;-65
2023/10/26 06:35:08;;;;;;;174.75;92.88;;;17.60;99.90;;;;;;5058728;28;20045;-64
2023/10/26 06:37:35;;;;;;;126.60;84.97;;;17.60;99.90;;;;;;5058457;28;20108;-63
2023/10/26 06:40:00;;;;;;;127.57;85.97;;;17.20;99.90;;;;;;5058565;28;20052;-65
2023/10/26 06:42:26;;;;;;;129.85;84.05;;;18.10;99.90;;;;;;5059145;28;20055;-64
2023/10/26 06:44:51;;;;;;;143.98;85.07;;;16.70;99.90;;;;;;5059119;28;20409;-63
2023/10/26 06:47:17;;;;;;;138.25;84.00;;;16.90;99.90;;;;;;5056676;28;20040;-65
2023/10/26 06:49:43;;;;;;;185.75;87.10;;;17.50;99.90;;;;;;5058171;28;20040;-62
2023/10/26 06:52:09;;;;;;;258.13;97.88;;;17.10;99.90;;;;;;5056956;28;20052;-62
2023/10/26 06:54:35;;;;;;;253.80;95.47;;;16.70;99.90;;;;;;5059615;28;20044;-62
2023/10/26 06:57:00;;;;;;;341.48;101.55;;;16.90;99.90;;;;;;5054701;28;20044;-63
2023/10/26 06:59:26;;;;;;;221.10;92.13;;;17.50;99.90;;;;;;5057463;28;21566;-66
2023/10/26 07:01:51;;;;;;;246.82;96.47;;;17.30;99.90;;;;;;5058470;28;20036;-61
2023/10/26 07:04:17;;;;;;;190.98;91.00;;;17.00;99.90;;;;;;5055869;28;20040;-65
2023/10/26 07:06:42;;;;;;;256.33;94.13;;;16.70;99.90;;;;;;5054681;28;20759;-61
2023/10/26 07:09:08;;;;;;;344.05;96.35;;;17.40;99.90;;;;;;5056036;28;20040;-62
2023/10/26 07:11:34;;;;;;;429.70;97.57;;;17.00;99.90;;;;;;5056256;28;20085;-66
2023/10/26 07:14:00;;;;;;;529.67;110.13;;;16.70;99.90;;;;;;5056710;28;20140;-61
2023/10/26 07:16:25;;;;;;;515.00;109.93;;;17.30;99.90;;;;;;5054211;28;20044;-61
2023/10/26 07:18:52;;;;;;;381.67;94.93;;;17.40;99.90;;;;;;5052921;28;20626;-62
2023/10/26 07:21:18;;;;;;;542.75;109.57;;;16.80;99.90;;;;;;5057420;28;20090;-65
2023/10/26 07:23:43;;;;;;;392.08;96.30;;;16.90;99.90;;;;;;5057843;28;20401;-61
2023/10/26 07:26:10;;;;;;;528.60;105.82;;;16.70;99.90;;;;;;5056929;28;20076;-63
2023/10/26 07:28:35;;;;;;;544.40;108.57;;;17.10;99.90;;;;;;5058793;28;20048;-62
2023/10/26 07:31:01;;;;;;;270.92;85.93;;;17.00;99.90;;;;;;5055612;28;20054;-62
2023/10/26 07:33:26;;;;;;;498.92;107.18;;;16.80;99.90;;;;;;5058827;28;20048;-63
2023/10/26 07:35:56;;;;;;;375.90;93.22;;;17.60;99.90;;;;;;5054410;28;20127;-63
2023/10/26 07:38:24;;;;;;;362.63;96.57;;;17.40;99.90;;;;;;5051436;28;20090;-63
2023/10/26 07:40:56;;;;;;;351.65;93.93;;;16.80;99.90;;;;;;5054032;28;20700;-65
2023/10/26 07:43:22;;;;;;;316.58;95.15;;;16.80;99.90;;;;;;5054209;28;20391;-62
2023/10/26 07:45:49;;;;;;;434.05;101.80;;;17.60;99.90;;;;;;5054256;28;20079;-66
2023/10/26 07:48:15;;;;;;;312.60;88.15;;;17.60;99.90;;;;;;5054157;28;20064;-62
2023/10/26 07:50:40;;;;;;;529.90;104.07;;;17.00;99.90;;;;;;5054834;28;20044;-64
2023/10/26 07:53:07;;;;;;;638.10;109.32;;;16.90;99.90;;;;;;5058367;28;20045;-63
2023/10/26 07:55:33;;;;;;;392.73;95.15;;;16.70;99.90;;;;;;5057727;28;20044;-62
2023/10/26 07:57:59;;;;;;;507.23;97.47;;;16.70;99.90;;;;;;5061937;28;20041;-61
2023/10/26 08:00:25;;;;;;;407.85;99.40;;;16.90;99.90;;;;;;5062438;28;20036;-63
2023/10/26 08:02:50;;;;;;;462.63;101.78;;;16.90;99.90;;;;;;5062171;28;20036;-62
2023/10/26 08:05:16;;;;;;;417.25;98.68;;;17.70;99.90;;;;;;5062426;28;20616;-63
2023/10/26 08:07:42;;;;;;;550.22;108.85;;;16.90;99.90;;;;;;5061245;28;20501;-62
2023/10/26 08:10:11;;;;;;;534.78;109.80;;;17.00;99.90;;;;;;5063523;28;20093;-63
2023/10/26 08:12:36;;;;;;;495.35;100.28;;;16.70;99.90;;;;;;5061529;28;20041;-62
2023/10/26 08:15:02;;;;;;;447.67;89.55;;;17.30;99.90;;;;;;5061991;28;20102;-62
2023/10/26 08:17:32;;;;;;;565.22;100.10;;;17.50;99.90;;;;;;5061401;28;20456;-62
2023/10/26 08:19:58;;;;;;;452.67;93.35;;;17.50;99.90;;;;;;5060444;28;20122;-61
2023/10/26 08:22:27;;;;;;;480.38;95.03;;;17.20;99.90;;;;;;5062046;28;20476;-63
2023/10/26 08:24:53;;;;;;;468.50;100.43;;;17.20;99.90;;;;;;5065971;28;20170;-62
2023/10/26 08:27:18;;;;;;;495.98;100.90;;;16.80;99.90;;;;;;5079206;28;20494;-62
2023/10/26 08:29:44;;;;;;;373.95;84.03;;;17.30;99.90;;;;;;5064528;28;20119;-62
2023/10/26 08:32:09;;;;;;;395.27;88.82;;;16.60;99.90;;;;;;5066084;28;20085;-62
2023/10/26 08:34:35;;;;;;;429.27;94.55;;;17.30;99.90;;;;;;5063018;28;20052;-62
2023/10/26 08:37:00;;;;;;;303.15;81.10;;;17.20;99.90;;;;;;5063974;28;20075;-62
2023/10/26 08:39:26;;;;;;;381.20;93.82;;;17.20;99.90;;;;;;5065546;28;20044;-64
2023/10/26 08:41:52;;;;;;;428.23;99.75;;;17.40;99.90;;;;;;5064042;28;20047;-63
2023/10/26 08:44:18;;;;;;;366.35;90.90;;;17.50;99.90;;;;;;5062204;28;20513;-61
2023/10/26 08:46:51;;;;;;;368.40;94.57;;;17.20;99.90;;;;;;5083133;28;20036;-61
2023/10/26 08:49:17;;;;;;;322.25;90.35;;;17.40;99.90;;;;;;5065920;28;20060;-62
2023/10/26 08:51:43;;;;;;;269.85;87.82;;;17.50;99.90;;;;;;5063347;28;20041;-60
2023/10/26 08:54:08;;;;;;;361.17;89.55;;;18.30;99.90;;;;;;5064740;28;20129;-62
2023/10/26 08:56:36;;;;;;;410.27;99.05;;;17.00;99.90;;;;;;5063831;28;20147;-64
2023/10/26 08:59:03;;;;;;;351.85;94.25;;;17.70;99.90;;;;;;5067259;28;20051;-67
2023/10/26 09:01:28;;;;;;;219.10;88.25;;;17.70;99.90;;;;;;5062666;28;20037;-66
2023/10/26 09:03:54;;;;;;;290.85;91.93;;;17.00;99.90;;;;;;5062463;28;20056;-63
2023/10/26 09:06:19;;;;;;;375.00;99.10;;;17.00;99.90;;;;;;5064860;28;20037;-63
2023/10/26 09:09:02;;;;;;;315.70;94.25;;;17.80;99.90;;;;;;5064961;28;20036;-63
2023/10/26 09:11:27;;;;;;;271.52;96.55;;;18.10;99.90;;;;;;5065122;28;20051;-63
2023/10/26 09:13:53;;;;;;;232.35;92.85;;;18.10;99.90;;;;;;5066454;28;20422;-63
2023/10/26 09:16:33;;;;;;;225.45;92.20;;;17.60;99.90;;;;;;5065525;28;20131;-64
2023/10/26 09:18:59;;;;;;;193.07;93.47;;;18.00;99.90;;;;;;5062974;28;20074;-66
2023/10/26 09:21:24;;;;;;;189.88;93.55;;;17.20;99.90;;;;;;5062371;28;20925;-62
2023/10/26 09:23:50;;;;;;;210.38;99.20;;;17.90;99.90;;;;;;5064113;28;20039;-63
2023/10/26 09:26:15;;;;;;;178.90;96.03;;;18.00;99.90;;;;;;5065321;28;20048;-63
2023/10/26 09:28:56;;;;;;;220.68;100.78;;;17.30;99.90;;;;;;5065155;28;20048;-63
2023/10/26 09:31:23;;;;;;;208.63;95.75;;;18.30;99.90;;;;;;5063585;28;20500;-64
2023/10/26 09:33:50;;;;;;;208.20;98.65;;;18.30;99.90;;;;;;5064967;28;20102;-64
2023/10/26 09:36:18;;;;;;;180.00;98.43;;;17.90;99.90;;;;;;5061826;28;20047;-64
2023/10/26 09:38:44;;;;;;;186.18;98.03;;;18.30;99.90;;;;;;5060651;28;20048;-64
2023/10/26 09:41:12;;;;;;;204.65;99.95;;;17.60;99.90;;;;;;5063918;28;20051;-63
2023/10/26 09:43:42;;;;;;;167.93;95.15;;;17.70;99.90;;;;;;5064408;28;20044;-63
2023/10/26 09:46:11;;;;;;;151.23;90.80;;;18.20;99.90;;;;;;5064104;28;20052;-63
2023/10/26 09:48:36;;;;;;;149.80;94.00;;;18.60;99.90;;;;;;5062854;28;20098;-63
2023/10/26 09:51:04;;;;;;;129.10;88.70;;;18.50;99.90;;;;;;5063752;28;20052;-64
2023/10/26 09:53:36;;;;;;;143.90;89.57;;;18.10;99.90;;;;;;5062672;28;20046;-63
2023/10/26 09:56:04;;;;;;;125.03;90.55;;;18.60;99.90;;;;;;5058675;28;20047;-65
2023/10/26 09:58:40;;;;;;;122.93;90.00;;;18.20;99.90;;;;;;5060085;28;20058;-63
2023/10/26 10:01:34;;;;;;;125.85;91.20;;;18.30;99.90;;;;;;5058833;28;20452;-63
2023/10/26 10:04:00;;;;;;;112.28;83.45;;;17.90;99.90;;;;;;5062621;28;20041;-62
2023/10/26 10:06:52;;;;;;;110.85;86.05;;;18.10;99.90;;;;;;5063949;28;20125;-72
2023/10/26 10:09:27;;;;;;;109.95;85.10;;;18.80;99.90;;;;;;5063949;28;21416;-69
2023/10/26 10:12:06;;;;;;;122.18;86.32;;;18.60;99.90;;;;;;5063578;28;20048;-70
2023/10/26 10:14:47;;;;;;;111.15;82.07;;;17.90;99.90;;;;;;5065138;28;20048;-71
2023/10/26 10:17:13;;;;;;;113.25;82.93;;;18.20;99.90;;;;;;5062205;28;20036;-71
2023/10/26 10:19:43;;;;;;;114.38;88.43;;;18.60;99.90;;;;;;5061557;28;20060;-71
2023/10/26 10:22:33;;;;;;;113.65;84.80;;;18.00;99.90;;;;;;5063984;28;20051;-72
2023/10/26 10:24:59;;;;;;;104.30;82.95;;;17.90;99.90;;;;;;5062037;28;20090;-72
2023/10/26 10:27:24;;;;;;;98.97;81.70;;;18.00;99.90;;;;;;5064451;28;20422;-72
2023/10/26 10:29:50;;;;;;;100.75;81.78;;;19.00;99.90;;;;;;5076978;28;20043;-72
2023/10/26 10:32:43;;;;;;;104.28;84.60;;;18.10;99.90;;;;;;5063886;28;20433;-70
2023/10/26 10:35:21;;;;;;;100.75;81.65;;;18.80;99.90;;;;;;5063527;28;20114;-70
2023/10/26 10:38:21;;;;;;;97.75;80.18;;;18.10;99.90;;;;;;5063844;28;20043;-69
2023/10/26 10:40:55;;;;;;;103.07;81.68;;;18.80;99.90;;;;;;5063425;28;20153;-71
2023/10/26 10:43:45;;;;;;;91.22;77.97;;;18.30;99.90;;;;;;5064432;28;20048;-70
2023/10/26 10:46:12;;;;;;;100.43;82.45;;;18.50;99.90;;;;;;5063872;28;20045;-71
2023/10/26 10:48:59;;;;;;;96.72;81.28;;;18.20;99.90;;;;;;5061171;28;20070;-71
2023/10/26 10:51:33;;;;;;;102.93;84.18;;;18.60;99.90;;;;;;5064527;28;20053;-71
2023/10/26 10:54:00;;;;;;;100.15;83.13;;;18.80;99.90;;;;;;5063957;28;20475;-72
2023/10/26 10:56:28;;;;;;;104.65;84.18;;;18.30;99.90;;;;;;5061556;28;20076;-71
2023/10/26 10:58:56;;;;;;;95.18;79.30;;;18.70;99.90;;;;;;5063893;28;20499;-69
2023/10/26 11:01:22;;;;;;;96.75;84.30;;;18.60;99.90;;;;;;5057491;28;20442;-69
2023/10/26 11:03:48;;;;;;;98.90;84.55;;;18.40;99.90;;;;;;5065849;28;20127;-71
2023/10/26 11:06:16;;;;;;;98.82;84.55;;;18.40;99.90;;;;;;5059632;28;20041;-67
2023/10/26 11:08:41;;;;;;;94.13;80.07;;;19.10;99.90;;;;;;5059292;28;20048;-70
2023/10/26 11:11:27;;;;;;;92.15;82.00;;;19.00;99.90;;;;;;5061770;28;20059;-71
2023/10/26 11:14:07;;;;;;;89.83;80.23;;;18.90;99.90;;;;;;5059512;28;20077;-71
2023/10/26 11:16:33;;;;;;;85.80;76.38;;;19.20;99.90;;;;;;5059272;28;20698;-65
2023/10/26 11:19:00;;;;;;;84.13;75.30;;;18.60;99.90;;;;;;5063275;28;20119;-62
2023/10/26 11:21:26;;;;;;;83.95;74.95;;;19.00;99.90;;;;;;5060985;28;20786;-62
2023/10/26 11:23:51;;;;;;;91.93;71.68;;;19.00;99.90;;;;;;5061537;28;20047;-63
2023/10/26 11:26:17;;;;;;;81.93;73.13;;;19.00;99.90;;;;;;5061439;28;20117;-61
2023/10/26 11:28:43;;;;;;;82.85;74.25;;;19.00;99.90;;;;;;5063149;28;20366;-61
2023/10/26 11:31:08;;;;;;;79.63;70.93;;;19.00;99.90;;;;;;5064107;28;20102;-62
2023/10/26 11:33:42;;;;;;;83.28;74.32;;;19.10;99.90;;;;;;5063494;28;20051;-62
2023/10/26 11:36:12;;;;;;;81.38;72.72;;;18.50;99.90;;;;;;5063317;28;20556;-63
2023/10/26 11:38:48;;;;;;;80.20;71.60;;;19.30;99.90;;;;;;5063108;28;20037;-62
2023/10/26 11:41:24;;;;;;;84.15;75.10;;;18.70;99.90;;;;;;5060920;28;20044;-62
2023/10/26 11:43:49;;;;;;;79.60;70.93;;;18.60;99.90;;;;;;5072045;28;20045;-62
2023/10/26 11:46:15;;;;;;;75.43;67.32;;;19.20;99.90;;;;;;5063034;28;20036;-63
2023/10/26 11:48:41;;;;;;;80.88;72.32;;;18.90;99.90;;;;;;5063031;28;20396;-61
2023/10/26 11:51:07;;;;;;;78.90;70.50;;;18.90;99.90;;;;;;5060722;28;20076;-61
2023/10/26 11:53:33;;;;;;;77.68;69.43;;;18.50;99.90;;;;;;5061545;28;20076;-61
2023/10/26 11:55:59;;;;;;;79.75;71.15;;;18.90;99.90;;;;;;5060415;28;20559;-62
2023/10/26 11:58:24;;;;;;;75.68;67.47;;;19.00;99.90;;;;;;5061179;28;20094;-63
2023/10/26 12:00:50;;;;;;;79.13;70.43;;;18.90;99.90;;;;;;5065706;28;20412;-61
2023/10/26 12:03:15;;;;;;;78.68;70.40;;;18.70;99.90;;;;;;5066644;28;20032;-63
2023/10/26 12:05:41;;;;;;;76.38;68.22;;;19.20;99.90;;;;;;5066432;28;20123;-62
2023/10/26 12:08:07;;;;;;;73.88;66.38;;;18.90;99.90;;;;;;5063174;28;20110;-65
2023/10/26 12:10:32;;;;;;;76.60;66.28;;;18.90;99.90;;;;;;5063076;28;20067;-62
2023/10/26 12:13:02;;;;;;;70.35;62.83;;;19.00;99.90;;;;;;5066233;28;20044;-61
2023/10/26 12:15:28;;;;;;;70.13;62.92;;;18.80;99.90;;;;;;5063193;28;20040;-61
2023/10/26 12:17:53;;;;;;;71.43;63.90;;;18.90;99.90;;;;;;5065317;28;20067;-63